Time;durP1;ratioP1;P1;durP2;ratioP2;P2;SDS_P1;SDS_P2;PMS_P1;PMS_P2;Temp;Humidity;BMP_temperature;BMP_pressure;BME280_temperature;BME280_humidity;BME280_pressure;Samples;Min_cycle;Max_cycle;Signal;HPM_P1;HPM_P2
2023/09/01 00:01:43;;;;;;;3.88;1.60;;;22.20;46.70;;;;;;7590932;23;20017;-76
2023/09/01 00:04:59;;;;;;;1.85;1.17;;;22.20;46.60;;;;;;7564394;23;20018;-75
2023/09/01 00:08:00;;;;;;;4.82;1.25;;;22.20;46.70;;;;;;7590883;23;20498;-76
2023/09/01 00:11:00;;;;;;;2.85;1.50;;;22.10;46.70;;;;;;7590330;23;20014;-74
2023/09/01 00:14:03;;;;;;;7.38;1.35;;;22.10;46.80;;;;;;7564384;23;20006;-75
2023/09/01 00:17:04;;;;;;;2.33;1.50;;;22.10;47.00;;;;;;7590328;23;20014;-75
2023/09/01 00:20:05;;;;;;;3.53;1.70;;;22.00;47.00;;;;;;7590405;23;20010;-75
2023/09/01 00:23:06;;;;;;;5.07;1.42;;;22.00;47.20;;;;;;7564992;23;20486;-75
2023/09/01 00:26:07;;;;;;;1.50;0.95;;;21.90;47.20;;;;;;7590681;23;20095;-76
2023/09/01 00:29:07;;;;;;;5.10;1.48;;;21.90;47.50;;;;;;7590032;23;20629;-75
2023/09/01 00:32:09;;;;;;;3.33;1.83;;;21.80;47.40;;;;;;7564129;23;20442;-76
2023/09/01 00:35:10;;;;;;;3.03;1.63;;;21.80;47.40;;;;;;7540496;23;20012;-74
2023/09/01 00:38:11;;;;;;;3.65;1.50;;;21.80;47.50;;;;;;7564550;23;20597;-75
2023/09/01 00:41:12;;;;;;;3.08;1.48;;;21.80;47.60;;;;;;7564608;23;20040;-76
2023/09/01 00:44:14;;;;;;;6.15;1.73;;;21.70;47.70;;;;;;7564356;23;20113;-76
2023/09/01 00:47:15;;;;;;;2.63;1.63;;;21.70;47.80;;;;;;7592502;23;20081;-76
2023/09/01 00:50:16;;;;;;;1.95;1.33;;;21.70;47.90;;;;;;7593077;23;20017;-76
2023/09/01 00:53:21;;;;;;;7.05;1.40;;;21.70;48.50;;;;;;7592809;23;20012;-76
2023/09/01 00:56:22;;;;;;;3.53;1.50;;;21.70;47.90;;;;;;7566626;23;20133;-75
2023/09/01 00:59:23;;;;;;;2.13;1.38;;;21.70;47.90;;;;;;7566105;23;20447;-75
2023/09/01 01:02:26;;;;;;;4.13;1.20;;;21.60;47.90;;;;;;7566411;23;20025;-76
2023/09/01 01:05:53;;;;;;;2.33;1.40;;;21.60;48.10;;;;;;7565695;23;20014;-74
2023/09/01 01:09:00;;;;;;;8.10;2.08;;;21.60;48.30;;;;;;7592556;23;20018;-75
2023/09/01 01:12:13;;;;;;;2.37;1.40;;;21.50;48.30;;;;;;7565703;23;20377;-75
2023/09/01 01:15:15;;;;;;;3.35;1.48;;;21.50;48.50;;;;;;7591894;23;20316;-76
2023/09/01 01:18:18;;;;;;;4.82;1.45;;;21.50;48.50;;;;;;7565769;23;20443;-76
2023/09/01 01:21:25;;;;;;;2.47;1.33;;;21.50;48.60;;;;;;7591798;23;20171;-75
2023/09/01 01:24:26;;;;;;;2.87;1.47;;;21.40;48.60;;;;;;7565983;23;20133;-76
2023/09/01 01:27:27;;;;;;;5.97;1.40;;;21.40;48.60;;;;;;7591893;23;20491;-75
2023/09/01 01:30:28;;;;;;;1.42;0.90;;;21.40;48.70;;;;;;7591887;23;20147;-77
2023/09/01 01:33:55;;;;;;;3.22;1.77;;;21.40;48.90;;;;;;7541765;23;20024;-75
2023/09/01 01:37:28;;;;;;;4.75;1.92;;;21.40;49.10;;;;;;7566045;23;20289;-75
2023/09/01 01:40:30;;;;;;;2.90;1.63;;;21.40;49.40;;;;;;7559836;23;20014;-75
2023/09/01 01:43:32;;;;;;;1.90;1.30;;;21.40;49.60;;;;;;7592346;23;20018;-75
2023/09/01 01:46:33;;;;;;;2.40;1.50;;;21.40;49.90;;;;;;7565731;23;20120;-75
2023/09/01 01:49:34;;;;;;;2.90;1.52;;;21.40;50.10;;;;;;7565351;23;20092;-77
2023/09/01 01:52:35;;;;;;;3.60;1.88;;;21.30;50.20;;;;;;7591892;23;20469;-75
2023/09/01 01:55:36;;;;;;;3.40;1.52;;;21.40;50.30;;;;;;7565145;23;20292;-75
2023/09/01 01:58:39;;;;;;;2.95;1.30;;;21.40;50.30;;;;;;7541201;23;20010;-75
2023/09/01 02:01:40;;;;;;;3.15;1.70;;;21.30;50.30;;;;;;7565212;23;20062;-76
2023/09/01 02:04:41;;;;;;;3.50;2.05;;;21.30;50.30;;;;;;7592201;23;20021;-76
2023/09/01 02:07:42;;;;;;;8.13;1.80;;;21.30;50.30;;;;;;7565655;23;20013;-76
2023/09/01 02:10:42;;;;;;;2.28;1.65;;;21.30;50.30;;;;;;7564777;23;20025;-75
2023/09/01 02:13:44;;;;;;;1.45;1.20;;;21.30;50.20;;;;;;7565079;23;20029;-76
2023/09/01 02:16:44;;;;;;;7.45;1.85;;;21.30;50.20;;;;;;7565290;23;20076;-75
2023/09/01 02:19:45;;;;;;;3.22;1.70;;;21.30;50.30;;;;;;7591284;23;20037;-76
2023/09/01 02:22:48;;;;;;;2.83;1.60;;;21.30;50.30;;;;;;7564891;23;20061;-75
2023/09/01 02:25:49;;;;;;;2.20;1.45;;;21.20;50.40;;;;;;7541032;23;20458;-76
2023/09/01 02:28:50;;;;;;;4.00;1.50;;;21.20;50.40;;;;;;7591493;23;20021;-75
2023/09/01 02:31:53;;;;;;;7.43;1.80;;;21.20;50.50;;;;;;7564961;23;20022;-76
2023/09/01 02:34:53;;;;;;;3.67;1.77;;;21.20;50.50;;;;;;7564949;23;20022;-75
2023/09/01 02:37:54;;;;;;;2.60;1.80;;;21.20;50.50;;;;;;7591321;23;20383;-76
2023/09/01 02:40:55;;;;;;;3.70;1.73;;;21.20;50.40;;;;;;7590934;23;20010;-76
2023/09/01 02:43:57;;;;;;;2.80;1.77;;;21.20;50.40;;;;;;7590995;23;20037;-75
2023/09/01 02:46:58;;;;;;;2.45;1.40;;;21.20;50.30;;;;;;7564320;23;20041;-74
2023/09/01 02:49:59;;;;;;;5.65;1.75;;;21.20;50.10;;;;;;7590359;23;20010;-76
2023/09/01 02:53:00;;;;;;;6.10;1.45;;;21.20;50.00;;;;;;7564336;23;20033;-75
2023/09/01 02:56:02;;;;;;;3.53;1.63;;;21.20;49.90;;;;;;7564675;23;20312;-75
2023/09/01 02:59:04;;;;;;;2.40;1.65;;;21.20;49.80;;;;;;7564645;23;20013;-75
2023/09/01 03:02:04;;;;;;;6.28;1.80;;;21.20;49.80;;;;;;7590594;23;20024;-74
2023/09/01 03:05:06;;;;;;;4.97;1.45;;;21.30;49.70;;;;;;7591097;23;20010;-74
2023/09/01 03:08:06;;;;;;;5.13;1.58;;;21.30;49.70;;;;;;7563921;23;20517;-74
2023/09/01 03:11:07;;;;;;;4.50;1.42;;;21.30;49.60;;;;;;7539969;23;20021;-74
2023/09/01 03:14:08;;;;;;;2.92;1.83;;;21.30;49.60;;;;;;7563951;23;20106;-74
2023/09/01 03:17:09;;;;;;;3.47;1.38;;;21.30;49.50;;;;;;7564231;23;20065;-75
2023/09/01 03:20:12;;;;;;;1.83;1.55;;;21.30;49.30;;;;;;7564459;23;20109;-74
2023/09/01 03:23:12;;;;;;;6.65;1.73;;;21.30;49.30;;;;;;7590617;23;20372;-75
2023/09/01 03:26:13;;;;;;;7.55;1.60;;;21.30;49.30;;;;;;7564400;23;20018;-75
2023/09/01 03:29:14;;;;;;;2.65;1.20;;;21.30;49.30;;;;;;7564593;23;20045;-74
2023/09/01 03:32:16;;;;;;;1.95;1.48;;;21.30;49.30;;;;;;7563814;23;20017;-74
2023/09/01 03:35:17;;;;;;;3.13;1.52;;;21.20;49.20;;;;;;7590725;23;20016;-75
2023/09/01 03:38:18;;;;;;;6.10;1.52;;;21.20;49.30;;;;;;7564230;23;20645;-74
2023/09/01 03:41:18;;;;;;;2.45;1.40;;;21.10;49.30;;;;;;7563754;23;20030;-73
2023/09/01 03:44:19;;;;;;;6.80;1.92;;;21.10;49.40;;;;;;7563783;23;20348;-75
2023/09/01 03:47:20;;;;;;;3.05;1.98;;;21.10;49.30;;;;;;7563937;23;20021;-76
2023/09/01 03:50:21;;;;;;;3.63;1.48;;;21.10;50.00;;;;;;7563671;23;20057;-75
2023/09/01 03:53:22;;;;;;;6.10;1.30;;;21.10;49.50;;;;;;7563854;23;20046;-74
2023/09/01 03:56:23;;;;;;;2.90;1.40;;;21.10;49.40;;;;;;7564477;23;20014;-75
2023/09/01 03:59:24;;;;;;;2.22;1.40;;;21.10;49.50;;;;;;7564556;23;20176;-74
2023/09/01 04:02:25;;;;;;;4.80;1.60;;;21.10;49.50;;;;;;7590761;23;20014;-74
2023/09/01 04:05:27;;;;;;;2.17;1.48;;;21.10;49.50;;;;;;7590842;23;20072;-76
2023/09/01 04:08:28;;;;;;;1.58;1.23;;;21.20;49.70;;;;;;7564949;23;20032;-74
2023/09/01 04:11:29;;;;;;;2.53;1.30;;;21.10;49.60;;;;;;7590559;23;20089;-74
2023/09/01 04:14:29;;;;;;;2.83;1.70;;;21.10;49.60;;;;;;7590396;23;20416;-75
2023/09/01 04:17:31;;;;;;;3.33;1.50;;;21.10;49.60;;;;;;7564646;23;20010;-75
2023/09/01 04:20:32;;;;;;;2.90;1.70;;;21.10;49.60;;;;;;7565029;23;20006;-75
2023/09/01 04:23:33;;;;;;;5.07;1.65;;;21.10;49.60;;;;;;7566573;23;20068;-74
2023/09/01 04:26:34;;;;;;;3.13;1.45;;;21.10;49.50;;;;;;7566415;23;20037;-75
2023/09/01 04:29:37;;;;;;;3.97;1.60;;;21.10;49.50;;;;;;7592498;23;20522;-74
2023/09/01 04:32:40;;;;;;;2.50;1.50;;;21.10;49.50;;;;;;7566125;23;20105;-75
2023/09/01 04:35:42;;;;;;;5.32;1.33;;;21.10;49.50;;;;;;7566160;23;20389;-75
2023/09/01 04:38:43;;;;;;;2.53;1.35;;;21.10;49.40;;;;;;7590204;23;20061;-74
2023/09/01 04:41:44;;;;;;;2.45;1.55;;;21.00;49.30;;;;;;7565699;23;20026;-74
2023/09/01 04:44:45;;;;;;;2.80;1.45;;;21.00;49.30;;;;;;7566578;23;20447;-75
2023/09/01 04:47:46;;;;;;;5.15;1.50;;;21.00;49.30;;;;;;7592143;23;20022;-75
2023/09/01 04:50:47;;;;;;;2.33;1.25;;;21.00;49.40;;;;;;7591492;23;20017;-75
2023/09/01 04:53:49;;;;;;;4.43;1.90;;;20.90;49.30;;;;;;7565823;23;20009;-76
2023/09/01 04:56:50;;;;;;;4.97;1.88;;;20.90;49.30;;;;;;7565659;23;20458;-74
2023/09/01 04:59:50;;;;;;;4.57;1.10;;;20.90;49.30;;;;;;7565754;23;20014;-74
2023/09/01 05:02:51;;;;;;;2.33;1.50;;;20.90;49.30;;;;;;7565400;23;20096;-74
2023/09/01 05:05:52;;;;;;;2.05;1.27;;;20.90;49.40;;;;;;7591671;23;20009;-74
2023/09/01 05:08:54;;;;;;;3.90;1.70;;;20.90;50.00;;;;;;7565672;23;20014;-76
2023/09/01 05:11:55;;;;;;;3.35;1.70;;;20.80;49.40;;;;;;7591343;23;20020;-75
2023/09/01 05:14:56;;;;;;;2.33;1.60;;;20.80;49.50;;;;;;7591083;23;20117;-74
2023/09/01 05:17:57;;;;;;;1.85;1.35;;;20.80;49.50;;;;;;7565207;23;20022;-75
2023/09/01 05:20:59;;;;;;;6.90;1.83;;;20.80;49.50;;;;;;7565414;23;20072;-73
2023/09/01 05:24:01;;;;;;;2.47;1.55;;;20.80;49.60;;;;;;7565556;23;20014;-75
2023/09/01 05:27:03;;;;;;;4.85;1.88;;;20.80;49.60;;;;;;7564956;23;20435;-74
2023/09/01 05:30:04;;;;;;;3.25;1.45;;;20.80;49.60;;;;;;7564709;23;20050;-74
2023/09/01 05:33:05;;;;;;;4.63;1.50;;;20.80;49.60;;;;;;7540777;23;20262;-74
2023/09/01 05:36:07;;;;;;;4.97;1.38;;;20.80;49.60;;;;;;7541395;23;20017;-74
2023/09/01 05:39:07;;;;;;;3.22;1.40;;;20.70;49.60;;;;;;7541315;23;20045;-76
2023/09/01 05:42:10;;;;;;;1.55;1.13;;;20.70;49.70;;;;;;7564710;23;20006;-75
2023/09/01 05:45:11;;;;;;;2.72;1.40;;;20.70;49.70;;;;;;7564763;23;20112;-74
2023/09/01 05:48:11;;;;;;;6.63;1.80;;;20.70;49.80;;;;;;7591302;23;20065;-74
2023/09/01 05:51:13;;;;;;;3.75;1.77;;;20.70;49.90;;;;;;7564224;23;20042;-74
2023/09/01 05:54:13;;;;;;;2.42;1.80;;;20.70;49.90;;;;;;7541032;23;20414;-74
2023/09/01 05:57:14;;;;;;;6.32;1.50;;;20.70;49.90;;;;;;7564711;23;20022;-76
2023/09/01 06:00:15;;;;;;;2.63;1.63;;;20.70;49.90;;;;;;7564659;23;20092;-75
2023/09/01 06:03:16;;;;;;;3.20;1.60;;;20.80;49.90;;;;;;7591261;23;20060;-74
2023/09/01 06:06:17;;;;;;;4.53;1.77;;;20.80;49.90;;;;;;7564262;23;20021;-73
2023/09/01 06:09:19;;;;;;;8.30;1.60;;;20.90;50.10;;;;;;7591096;23;20036;-74
2023/09/01 06:12:20;;;;;;;3.72;1.90;;;21.00;50.40;;;;;;7565695;23;20080;-74
2023/09/01 06:15:21;;;;;;;3.55;2.10;;;20.90;50.30;;;;;;7541395;23;20482;-74
2023/09/01 06:18:22;;;;;;;5.75;2.38;;;20.90;50.30;;;;;;7591552;23;20105;-76
2023/09/01 06:21:23;;;;;;;3.78;2.13;;;21.00;50.20;;;;;;7591185;23;20060;-75
2023/09/01 06:24:24;;;;;;;6.70;1.92;;;21.00;50.20;;;;;;7591175;23;20021;-74
2023/09/01 06:27:25;;;;;;;6.47;1.65;;;21.00;50.20;;;;;;7590909;23;20017;-74
2023/09/01 06:30:25;;;;;;;7.45;2.15;;;21.00;50.10;;;;;;7564035;23;20026;-76
2023/09/01 06:33:26;;;;;;;4.70;1.42;;;21.10;50.20;;;;;;7590762;23;20042;-75
2023/09/01 06:36:27;;;;;;;3.10;1.67;;;21.10;50.10;;;;;;7564968;23;20041;-75
2023/09/01 06:39:28;;;;;;;3.53;1.52;;;21.20;50.20;;;;;;7540794;23;20427;-74
2023/09/01 06:42:29;;;;;;;2.97;1.73;;;21.20;50.00;;;;;;7564851;23;20017;-74
2023/09/01 06:45:29;;;;;;;7.38;1.92;;;21.30;50.10;;;;;;7590760;23;20028;-77
2023/09/01 06:48:31;;;;;;;6.13;2.00;;;21.40;50.10;;;;;;7590890;23;20017;-74
2023/09/01 06:51:31;;;;;;;5.80;2.03;;;21.50;50.20;;;;;;7590440;23;20388;-75
2023/09/01 06:54:32;;;;;;;2.75;1.70;;;21.50;50.20;;;;;;7564663;23;20030;-76
2023/09/01 06:57:33;;;;;;;4.78;2.10;;;21.60;50.30;;;;;;7591194;23;20029;-76
2023/09/01 07:00:34;;;;;;;6.72;2.90;;;21.70;50.30;;;;;;7564637;23;20018;-75
2023/09/01 07:03:35;;;;;;;2.75;1.75;;;21.70;50.20;;;;;;7591284;23;20036;-74
2023/09/01 07:06:35;;;;;;;4.40;2.20;;;21.80;50.00;;;;;;7590590;23;20068;-74
2023/09/01 07:09:36;;;;;;;3.53;1.85;;;21.80;50.00;;;;;;7564352;23;20104;-75
2023/09/01 07:12:37;;;;;;;4.45;1.65;;;21.80;50.00;;;;;;7591277;23;20123;-74
2023/09/01 07:15:38;;;;;;;3.88;1.85;;;21.90;49.90;;;;;;7591239;23;20104;-75
2023/09/01 07:18:39;;;;;;;4.18;1.73;;;22.00;49.90;;;;;;7590433;23;20155;-74
2023/09/01 07:21:39;;;;;;;6.60;2.08;;;22.00;49.70;;;;;;7563918;23;20124;-75
2023/09/01 07:24:40;;;;;;;8.80;1.95;;;22.10;49.50;;;;;;7565348;23;20108;-76
2023/09/01 07:27:41;;;;;;;8.00;2.60;;;22.20;49.40;;;;;;7591004;23;20009;-75
2023/09/01 07:30:42;;;;;;;3.45;2.47;;;22.30;49.10;;;;;;7564408;23;20014;-74
2023/09/01 07:33:43;;;;;;;7.63;2.70;;;22.30;48.80;;;;;;7590712;23;20116;-75
2023/09/01 07:36:43;;;;;;;5.88;2.15;;;22.40;48.70;;;;;;7564449;23;20100;-74
2023/09/01 07:39:44;;;;;;;4.05;1.95;;;22.50;48.70;;;;;;7563951;23;20018;-75
2023/09/01 07:42:45;;;;;;;6.82;2.35;;;22.60;48.60;;;;;;7564160;23;20018;-75
2023/09/01 07:45:46;;;;;;;5.82;2.67;;;22.70;48.60;;;;;;7590475;23;20010;-75
2023/09/01 07:48:46;;;;;;;7.82;2.33;;;22.80;48.50;;;;;;7564764;23;20005;-76
2023/09/01 07:51:48;;;;;;;8.43;2.30;;;23.00;48.30;;;;;;7590445;23;20010;-74
2023/09/01 07:54:49;;;;;;;5.22;1.92;;;23.10;48.00;;;;;;7566681;23;20101;-74
2023/09/01 07:57:50;;;;;;;2.95;1.80;;;23.30;47.80;;;;;;7594558;23;20005;-75
2023/09/01 08:00:52;;;;;;;4.95;1.77;;;23.40;47.50;;;;;;7594007;23;20068;-76
2023/09/01 08:03:54;;;;;;;6.75;1.67;;;23.50;47.30;;;;;;7594368;23;20731;-74
2023/09/01 08:06:59;;;;;;;2.88;1.63;;;23.60;47.20;;;;;;7593788;23;20077;-73
2023/09/01 08:10:00;;;;;;;8.60;1.90;;;23.70;47.00;;;;;;7593964;23;20552;-74
2023/09/01 08:13:01;;;;;;;6.03;1.98;;;23.90;46.70;;;;;;7567643;23;20104;-74
2023/09/01 08:16:02;;;;;;;4.88;2.20;;;24.10;46.40;;;;;;7594479;23;20028;-75
2023/09/01 08:19:03;;;;;;;5.50;2.28;;;24.30;46.00;;;;;;7568115;23;20042;-76
2023/09/01 08:22:04;;;;;;;5.97;2.00;;;24.40;45.60;;;;;;7567857;23;20208;-75
2023/09/01 08:25:06;;;;;;;3.42;1.83;;;24.50;45.40;;;;;;7568345;23;20037;-75
2023/09/01 08:28:07;;;;;;;3.15;1.75;;;24.60;45.10;;;;;;7568495;23;20017;-74
2023/09/01 08:31:08;;;;;;;4.75;1.92;;;24.70;45.00;;;;;;7567579;23;20021;-75
2023/09/01 08:34:10;;;;;;;5.13;1.90;;;24.90;44.70;;;;;;7594207;23;20037;-74
2023/09/01 08:37:11;;;;;;;9.38;2.70;;;25.00;44.60;;;;;;7568076;23;20464;-74
2023/09/01 08:40:12;;;;;;;4.93;2.53;;;25.00;44.40;;;;;;7543360;23;20041;-74
2023/09/01 08:43:14;;;;;;;6.13;2.75;;;25.10;44.10;;;;;;7593017;23;20021;-74
2023/09/01 08:46:20;;;;;;;5.80;2.70;;;25.20;44.00;;;;;;7592807;23;20014;-75
2023/09/01 08:49:23;;;;;;;9.60;3.20;;;25.30;43.70;;;;;;7593453;23;20010;-74
2023/09/01 08:52:24;;;;;;;7.80;2.45;;;25.40;43.70;;;;;;7593574;23;20059;-75
2023/09/01 08:55:25;;;;;;;7.35;2.15;;;25.40;43.70;;;;;;7567932;23;20028;-75
2023/09/01 08:58:26;;;;;;;3.75;2.22;;;25.40;43.70;;;;;;7593845;23;20006;-75
2023/09/01 09:01:27;;;;;;;5.97;2.08;;;25.50;43.80;;;;;;7593596;23;20037;-74
2023/09/01 09:04:30;;;;;;;7.60;3.40;;;25.60;43.80;;;;;;7592941;23;20113;-75
2023/09/01 09:07:32;;;;;;;7.35;2.78;;;25.80;43.80;;;;;;7591334;23;20389;-74
2023/09/01 09:10:39;;;;;;;4.95;2.88;;;25.90;43.50;;;;;;7565019;23;20053;-73
2023/09/01 09:13:40;;;;;;;3.58;2.08;;;26.00;43.20;;;;;;7592112;23;20017;-75
2023/09/01 09:16:54;;;;;;;3.50;1.80;;;26.10;42.90;;;;;;7591519;23;20073;-74
2023/09/01 09:19:59;;;;;;;7.10;2.10;;;26.00;42.70;;;;;;7540522;23;20010;-74
2023/09/01 09:23:00;;;;;;;3.97;2.13;;;25.90;42.70;;;;;;7564778;23;20006;-76
2023/09/01 09:26:02;;;;;;;5.28;2.63;;;25.90;42.70;;;;;;7591724;23;20069;-76
2023/09/01 09:29:11;;;;;;;3.10;1.92;;;25.90;42.80;;;;;;7591903;23;20014;-75
2023/09/01 09:32:20;;;;;;;3.45;1.95;;;26.00;42.80;;;;;;7564889;23;20014;-75
2023/09/01 09:35:24;;;;;;;6.75;2.63;;;26.10;42.50;;;;;;7591195;23;20014;-74
2023/09/01 09:38:46;;;;;;;11.57;3.35;;;26.20;42.20;;;;;;7564431;23;20089;-74
2023/09/01 09:41:47;;;;;;;3.63;2.15;;;26.40;42.00;;;;;;7590599;23;20411;-75
2023/09/01 09:44:49;;;;;;;5.25;2.40;;;26.50;41.70;;;;;;7590752;23;20014;-75
2023/09/01 09:47:50;;;;;;;7.13;1.88;;;26.60;41.50;;;;;;7591248;23;20079;-75
2023/09/01 09:50:52;;;;;;;5.65;2.67;;;26.70;41.40;;;;;;7589651;23;20010;-73
2023/09/01 09:53:55;;;;;;;8.73;2.05;;;26.80;41.30;;;;;;7563923;23;20095;-74
2023/09/01 09:56:58;;;;;;;4.07;2.03;;;27.00;41.00;;;;;;7590434;23;20433;-76
2023/09/01 10:00:08;;;;;;;6.10;1.90;;;27.20;40.50;;;;;;7590297;23;20411;-75
2023/09/01 10:03:15;;;;;;;4.40;1.55;;;27.30;40.10;;;;;;7590675;23;20436;-75
2023/09/01 10:06:17;;;;;;;3.05;1.90;;;27.40;39.60;;;;;;7539893;23;20092;-76
2023/09/01 10:09:18;;;;;;;3.22;1.42;;;27.50;39.50;;;;;;7589767;23;20400;-75
2023/09/01 10:12:19;;;;;;;2.45;1.45;;;27.50;39.00;;;;;;7590735;23;20017;-75
2023/09/01 10:15:21;;;;;;;3.08;1.25;;;27.60;38.50;;;;;;7564319;23;20010;-76
2023/09/01 10:18:24;;;;;;;5.68;1.48;;;27.70;38.00;;;;;;7564449;23;20006;-77
2023/09/01 10:21:25;;;;;;;3.35;1.52;;;27.80;37.30;;;;;;7565799;23;20277;-76
2023/09/01 10:24:25;;;;;;;2.20;1.50;;;27.80;37.00;;;;;;7591637;23;20018;-76
2023/09/01 10:27:26;;;;;;;3.10;1.77;;;27.90;36.80;;;;;;7564526;23;20092;-76
2023/09/01 10:30:30;;;;;;;2.00;1.42;;;28.00;36.90;;;;;;7590152;23;20027;-75
2023/09/01 10:33:31;;;;;;;4.35;1.70;;;28.10;37.00;;;;;;7564927;23;20059;-76
2023/09/01 10:36:32;;;;;;;11.77;2.10;;;28.30;37.10;;;;;;7591025;23;20006;-75
2023/09/01 10:39:33;;;;;;;8.65;1.88;;;28.40;36.90;;;;;;7590035;23;20104;-74
2023/09/01 10:42:48;;;;;;;3.25;1.35;;;28.40;36.40;;;;;;7564818;23;20555;-75
2023/09/01 10:46:12;;;;;;;2.65;1.48;;;28.50;36.00;;;;;;7590316;23;20515;-75
2023/09/01 10:49:14;;;;;;;5.78;1.60;;;28.60;35.90;;;;;;7589369;23;20018;-75
2023/09/01 10:52:15;;;;;;;3.20;1.60;;;28.90;35.60;;;;;;7590220;23;20010;-76
2023/09/01 10:55:16;;;;;;;4.35;2.28;;;29.20;35.00;;;;;;7589692;23;20010;-75
2023/09/01 10:58:17;;;;;;;3.03;1.45;;;29.50;34.50;;;;;;7590112;23;20002;-74
2023/09/01 11:01:30;;;;;;;3.85;1.52;;;29.80;33.80;;;;;;7589931;23;20292;-75
2023/09/01 11:04:31;;;;;;;4.55;1.30;;;30.10;33.60;;;;;;7589862;23;20021;-75
2023/09/01 11:08:10;;;;;;;3.15;1.73;;;30.40;33.20;;;;;;7590207;23;20006;-76
2023/09/01 11:11:11;;;;;;;5.43;1.63;;;30.80;32.60;;;;;;7589530;23;20028;-75
2023/09/01 11:14:12;;;;;;;3.78;1.55;;;31.10;32.10;;;;;;7563402;23;20316;-75
2023/09/01 11:17:13;;;;;;;2.88;1.40;;;31.40;31.90;;;;;;7589356;23;20002;-75
2023/09/01 11:20:18;;;;;;;3.92;1.55;;;31.70;31.20;;;;;;7588573;23;20264;-75
2023/09/01 11:23:24;;;;;;;5.00;1.77;;;31.90;31.00;;;;;;7589618;23;20043;-74
2023/09/01 11:26:25;;;;;;;2.28;1.40;;;32.10;30.50;;;;;;7562673;23;20037;-75
2023/09/01 11:29:26;;;;;;;2.72;1.60;;;32.40;30.10;;;;;;7588847;23;20032;-75
2023/09/01 11:32:27;;;;;;;2.65;1.58;;;32.60;30.00;;;;;;7589499;23;20010;-76
2023/09/01 11:35:29;;;;;;;2.00;1.38;;;32.90;29.60;;;;;;7589396;23;20006;-76
2023/09/01 11:38:29;;;;;;;2.38;1.23;;;33.00;29.50;;;;;;7589752;23;20052;-75
2023/09/01 11:41:31;;;;;;;4.70;1.55;;;33.20;29.40;;;;;;7589679;23;20013;-75
2023/09/01 11:44:32;;;;;;;1.88;1.20;;;33.40;29.20;;;;;;7563464;23;20037;-74
2023/09/01 11:47:33;;;;;;;4.32;1.73;;;33.80;28.90;;;;;;7590422;23;20481;-76
2023/09/01 11:50:34;;;;;;;2.60;1.33;;;34.00;28.40;;;;;;7589368;23;20014;-75
2023/09/01 11:53:35;;;;;;;1.42;0.98;;;34.00;28.30;;;;;;7563499;23;20014;-77
2023/09/01 11:56:36;;;;;;;7.20;1.38;;;34.20;28.10;;;;;;7590456;23;20409;-75
2023/09/01 11:59:47;;;;;;;2.28;1.20;;;34.40;27.70;;;;;;7590460;23;20097;-75
2023/09/01 12:02:48;;;;;;;2.35;1.10;;;34.70;27.70;;;;;;7563984;23;20013;-77
2023/09/01 12:05:49;;;;;;;3.38;1.50;;;35.10;27.40;;;;;;7563599;23;20014;-76
2023/09/01 12:08:52;;;;;;;2.60;1.13;;;35.50;27.00;;;;;;7589121;23;20020;-75
2023/09/01 12:12:00;;;;;;;3.83;1.35;;;35.80;26.70;;;;;;7561253;23;20086;-74
2023/09/01 12:15:04;;;;;;;;;;;36.00;26.30;;;;;;7538124;23;20016;-76
2023/09/01 12:18:35;;;;;;;3.88;1.40;;;36.30;26.20;;;;;;7588311;23;20227;-78
2023/09/01 12:21:36;;;;;;;3.17;0.80;;;36.60;25.70;;;;;;7588356;23;20013;-76
2023/09/01 12:24:38;;;;;;;2.15;1.27;;;37.00;25.30;;;;;;7588507;23;20088;-75
2023/09/01 12:27:39;;;;;;;5.32;1.50;;;37.30;24.90;;;;;;7562226;23;20025;-75
2023/09/01 12:30:39;;;;;;;1.38;0.93;;;37.70;24.60;;;;;;7588574;23;20018;-76
2023/09/01 12:33:40;;;;;;;2.28;1.17;;;37.90;24.20;;;;;;7588857;23;20053;-77
2023/09/01 12:36:41;;;;;;;1.80;1.10;;;38.20;24.10;;;;;;7588472;23;20014;-77
2023/09/01 12:39:42;;;;;;;2.22;1.10;;;38.80;23.80;;;;;;7588025;23;20037;-76
2023/09/01 12:42:42;;;;;;;5.38;1.17;;;39.70;23.00;;;;;;7590173;23;20005;-76
2023/09/01 12:45:43;;;;;;;4.25;1.40;;;40.10;22.40;;;;;;7564057;23;20101;-76
2023/09/01 12:48:44;;;;;;;2.38;1.15;;;40.60;22.10;;;;;;7563700;23;20066;-76
2023/09/01 12:51:45;;;;;;;2.20;1.33;;;41.20;21.60;;;;;;7588908;23;20069;-76
2023/09/01 12:54:46;;;;;;;8.27;1.65;;;41.70;21.20;;;;;;7563594;23;20010;-75
2023/09/01 12:57:47;;;;;;;1.50;1.10;;;42.40;21.20;;;;;;7563446;23;20006;-77
2023/09/01 13:00:48;;;;;;;5.68;1.48;;;43.00;20.20;;;;;;7589636;23;20033;-76
2023/09/01 13:03:48;;;;;;;4.07;0.80;;;43.40;19.80;;;;;;7590185;23;20013;-76
2023/09/01 13:06:49;;;;;;;2.53;1.00;;;44.30;19.60;;;;;;7563584;23;20656;-77
2023/09/01 13:09:52;;;;;;;1.83;1.05;;;44.60;19.10;;;;;;7514682;23;1188236;-76
2023/09/01 13:12:53;;;;;;;1.75;1.05;;;45.10;18.70;;;;;;7591569;23;20021;-77
2023/09/01 13:15:54;;;;;;;3.05;1.20;;;45.20;18.40;;;;;;7591956;23;20002;-76
2023/09/01 13:18:55;;;;;;;1.95;1.05;;;45.50;18.20;;;;;;7565555;23;20280;-77
2023/09/01 13:21:56;;;;;;;3.22;1.25;;;45.80;17.80;;;;;;7565149;23;20060;-74
2023/09/01 13:24:57;;;;;;;2.05;1.10;;;45.80;17.80;;;;;;7592220;23;20085;-76
2023/09/01 13:27:58;;;;;;;1.45;1.05;;;45.60;17.70;;;;;;7591937;23;20040;-76
2023/09/01 13:30:58;;;;;;;2.03;1.13;;;45.50;17.60;;;;;;7591907;23;20092;-75
2023/09/01 13:33:59;;;;;;;1.73;1.17;;;45.70;17.70;;;;;;7565808;23;20010;-76
2023/09/01 13:37:00;;;;;;;2.03;1.20;;;45.90;17.50;;;;;;7592352;23;20009;-76
2023/09/01 13:40:01;;;;;;;2.88;1.10;;;46.10;17.30;;;;;;7591958;23;20105;-76
2023/09/01 13:43:02;;;;;;;1.15;1.00;;;46.30;17.10;;;;;;7592324;23;20054;-75
2023/09/01 13:46:22;;;;;;;2.30;1.40;;;46.20;16.90;;;;;;7591684;23;20033;-74
2023/09/01 13:49:24;;;;;;;3.42;1.15;;;46.20;17.00;;;;;;7592073;23;20010;-75
2023/09/01 13:52:25;;;;;;;1.67;1.08;;;46.10;16.80;;;;;;7564874;23;20018;-75
2023/09/01 13:55:25;;;;;;;6.72;1.25;;;45.40;16.90;;;;;;7591879;23;20010;-76
2023/09/01 13:58:26;;;;;;;2.15;1.13;;;45.30;17.10;;;;;;7566300;23;20141;-73
2023/09/01 14:01:27;;;;;;;3.92;0.90;;;45.00;17.20;;;;;;7566075;23;20009;-76
2023/09/01 14:04:28;;;;;;;1.70;0.98;;;44.70;17.50;;;;;;7591945;23;20016;-75
2023/09/01 14:07:29;;;;;;;17.33;1.88;;;43.90;17.90;;;;;;7591938;23;20072;-76
2023/09/01 14:10:29;;;;;;;1.50;0.93;;;42.70;18.70;;;;;;7540490;23;20018;-75
2023/09/01 14:13:30;;;;;;;1.85;1.30;;;41.40;19.60;;;;;;7591604;23;20253;-75
2023/09/01 14:16:31;;;;;;;2.47;1.00;;;40.20;20.50;;;;;;7564731;23;20663;-75
2023/09/01 14:19:32;;;;;;;6.60;1.08;;;38.90;21.50;;;;;;7591753;23;20620;-76
2023/09/01 14:22:33;;;;;;;5.60;1.08;;;37.80;22.30;;;;;;7590668;23;20006;-74
2023/09/01 14:25:34;;;;;;;3.83;1.23;;;36.90;23.20;;;;;;7564067;23;20009;-74
2023/09/01 14:28:35;;;;;;;2.05;1.13;;;36.10;23.90;;;;;;7565145;23;20101;-74
2023/09/01 14:31:36;;;;;;;2.70;1.13;;;35.50;24.60;;;;;;7590881;23;20502;-74
2023/09/01 14:34:37;;;;;;;3.78;1.00;;;35.00;25.20;;;;;;7564265;23;20113;-74
2023/09/01 14:37:37;;;;;;;5.50;1.15;;;34.50;25.60;;;;;;7590212;23;20291;-73
2023/09/01 14:40:38;;;;;;;5.05;1.08;;;34.20;26.10;;;;;;7563824;23;20017;-75
2023/09/01 14:43:39;;;;;;;2.35;1.33;;;33.90;26.50;;;;;;7564427;23;20400;-75
2023/09/01 14:46:40;;;;;;;4.03;1.10;;;33.60;26.80;;;;;;7590600;23;20014;-76
2023/09/01 14:49:40;;;;;;;3.20;1.13;;;33.40;27.20;;;;;;7590840;23;20687;-74
2023/09/01 14:52:41;;;;;;;3.17;1.33;;;33.20;27.50;;;;;;7590221;23;20025;-76
2023/09/01 14:55:42;;;;;;;1.10;0.88;;;33.00;27.90;;;;;;7590244;23;20096;-75
2023/09/01 14:58:43;;;;;;;2.05;1.30;;;32.80;28.10;;;;;;7564647;23;20077;-75
2023/09/01 15:01:44;;;;;;;2.13;1.20;;;32.70;28.40;;;;;;7590672;23;20010;-74
2023/09/01 15:04:44;;;;;;;2.80;1.65;;;32.60;28.60;;;;;;7588715;23;20017;-74
2023/09/01 15:07:45;;;;;;;2.83;1.23;;;32.50;28.90;;;;;;7590367;23;20014;-75
2023/09/01 15:10:46;;;;;;;1.95;0.95;;;32.40;29.10;;;;;;7563821;23;20084;-73
2023/09/01 15:13:47;;;;;;;2.78;1.10;;;32.30;29.30;;;;;;7589874;23;20014;-75
2023/09/01 15:16:48;;;;;;;3.80;1.15;;;32.30;29.50;;;;;;7589756;23;20053;-74
2023/09/01 15:19:49;;;;;;;3.33;1.40;;;32.20;29.60;;;;;;7562962;23;20290;-75
2023/09/01 15:22:50;;;;;;;1.42;0.88;;;32.20;29.60;;;;;;7589771;23;20030;-75
2023/09/01 15:25:51;;;;;;;3.75;1.33;;;32.20;29.80;;;;;;7564173;23;20381;-75
2023/09/01 15:28:51;;;;;;;1.20;0.95;;;32.20;29.80;;;;;;7564158;23;20025;-74
2023/09/01 15:31:52;;;;;;;3.47;1.15;;;32.30;29.90;;;;;;7589943;23;20177;-73
2023/09/01 15:34:53;;;;;;;2.10;1.30;;;32.20;29.90;;;;;;7590500;23;20050;-75
2023/09/01 15:37:55;;;;;;;1.23;0.90;;;32.20;30.00;;;;;;7564118;23;20084;-74
2023/09/01 15:40:59;;;;;;;4.00;1.17;;;32.20;30.00;;;;;;7563408;23;20492;-75
2023/09/01 15:44:02;;;;;;;2.60;1.23;;;32.20;30.00;;;;;;7588766;23;20021;-75
2023/09/01 15:47:03;;;;;;;3.47;1.58;;;32.20;30.00;;;;;;7589261;23;20035;-75
2023/09/01 15:50:05;;;;;;;4.30;0.90;;;32.30;30.00;;;;;;7589294;23;20395;-74